sensor_id;sensor_type;location;lat;lon;timestamp;temperature;humidity
45735;DHT22;31446;49.632;8.328;2023-06-04T00:03:01;15.80;85.50
45735;DHT22;31446;49.632;8.328;2023-06-04T00:18:07;15.60;85.80
45735;DHT22;31446;49.632;8.328;2023-06-04T00:33:14;15.40;85.70
45735;DHT22;31446;49.632;8.328;2023-06-04T00:48:21;15.20;86.30
45735;DHT22;31446;49.632;8.328;2023-06-04T01:03:28;15.20;86.30
45735;DHT22;31446;49.632;8.328;2023-06-04T01:18:37;14.90;86.10
45735;DHT22;31446;49.632;8.328;2023-06-04T01:33:44;14.70;87.60
45735;DHT22;31446;49.632;8.328;2023-06-04T01:48:51;14.70;86.20
45735;DHT22;31446;49.632;8.328;2023-06-04T02:03:58;14.60;85.70
45735;DHT22;31446;49.632;8.328;2023-06-04T02:19:04;14.30;87.10
45735;DHT22;31446;49.632;8.328;2023-06-04T02:34:11;14.30;87.00
45735;DHT22;31446;49.632;8.328;2023-06-04T02:49:17;14.10;87.40
45735;DHT22;31446;49.632;8.328;2023-06-04T03:04:23;13.90;87.70
45735;DHT22;31446;49.632;8.328;2023-06-04T03:19:38;13.80;88.70
45735;DHT22;31446;49.632;8.328;2023-06-04T03:34:45;13.60;89.40
45735;DHT22;31446;49.632;8.328;2023-06-04T03:49:51;13.70;90.00
45735;DHT22;31446;49.632;8.328;2023-06-04T04:04:58;13.60;89.20
45735;DHT22;31446;49.632;8.328;2023-06-04T04:20:05;13.70;89.60
45735;DHT22;31446;49.632;8.328;2023-06-04T04:35:11;13.80;90.00
45735;DHT22;31446;49.632;8.328;2023-06-04T04:50:21;14.30;89.10
45735;DHT22;31446;49.632;8.328;2023-06-04T05:05:28;15.50;86.30
45735;DHT22;31446;49.632;8.328;2023-06-04T05:20:34;16.10;84.60
45735;DHT22;31446;49.632;8.328;2023-06-04T05:35:41;16.00;85.80
45735;DHT22;31446;49.632;8.328;2023-06-04T05:50:47;15.80;86.90
45735;DHT22;31446;49.632;8.328;2023-06-04T06:05:54;16.10;84.80
45735;DHT22;31446;49.632;8.328;2023-06-04T06:21:03;16.40;84.30
45735;DHT22;31446;49.632;8.328;2023-06-04T06:36:10;15.90;85.00
45735;DHT22;31446;49.632;8.328;2023-06-04T06:51:20;16.00;84.60
45735;DHT22;31446;49.632;8.328;2023-06-04T07:06:26;16.50;85.80
45735;DHT22;31446;49.632;8.328;2023-06-04T07:21:33;17.30;83.10
45735;DHT22;31446;49.632;8.328;2023-06-04T07:36:39;18.00;82.20
45735;DHT22;31446;49.632;8.328;2023-06-04T07:51:45;19.10;80.20
45735;DHT22;31446;49.632;8.328;2023-06-04T08:06:52;19.60;78.80
45735;DHT22;31446;49.632;8.328;2023-06-04T08:21:59;19.80;77.00
45735;DHT22;31446;49.632;8.328;2023-06-04T08:37:05;20.00;77.10
45735;DHT22;31446;49.632;8.328;2023-06-04T08:52:12;20.60;76.90
45735;DHT22;31446;49.632;8.328;2023-06-04T09:07:18;21.70;73.90
45735;DHT22;31446;49.632;8.328;2023-06-04T09:22:35;22.60;71.50
45735;DHT22;31446;49.632;8.328;2023-06-04T09:37:52;22.90;71.20
45735;DHT22;31446;49.632;8.328;2023-06-04T09:52:59;22.70;71.40
45735;DHT22;31446;49.632;8.328;2023-06-04T10:08:11;23.00;72.50
45735;DHT22;31446;49.632;8.328;2023-06-04T10:23:20;23.40;71.10
45735;DHT22;31446;49.632;8.328;2023-06-04T10:38:28;24.60;69.60
45735;DHT22;31446;49.632;8.328;2023-06-04T10:53:42;25.20;66.60
45735;DHT22;31446;49.632;8.328;2023-06-04T11:09:04;24.30;66.10
45735;DHT22;31446;49.632;8.328;2023-06-04T11:24:17;25.10;64.60
45735;DHT22;31446;49.632;8.328;2023-06-04T11:39:35;25.90;62.00
45735;DHT22;31446;49.632;8.328;2023-06-04T11:54:44;26.00;61.80
45735;DHT22;31446;49.632;8.328;2023-06-04T12:09:53;26.40;61.50
45735;DHT22;31446;49.632;8.328;2023-06-04T12:25:01;26.50;61.40
45735;DHT22;31446;49.632;8.328;2023-06-04T12:40:11;26.50;60.30
45735;DHT22;31446;49.632;8.328;2023-06-04T12:55:18;26.40;60.30
45735;DHT22;31446;49.632;8.328;2023-06-04T13:10:24;26.20;59.20
45735;DHT22;31446;49.632;8.328;2023-06-04T13:25:34;26.40;57.20
45735;DHT22;31446;49.632;8.328;2023-06-04T13:40:40;27.20;56.80
45735;DHT22;31446;49.632;8.328;2023-06-04T13:55:50;27.20;56.30
45735;DHT22;31446;49.632;8.328;2023-06-04T14:11:07;27.00;55.80
45735;DHT22;31446;49.632;8.328;2023-06-04T14:26:14;26.30;55.40
45735;DHT22;31446;49.632;8.328;2023-06-04T14:41:28;26.30;54.50
45735;DHT22;31446;49.632;8.328;2023-06-04T14:56:39;26.50;52.80
45735;DHT22;31446;49.632;8.328;2023-06-04T15:11:46;25.90;54.40
45735;DHT22;31446;49.632;8.328;2023-06-04T15:26:53;26.00;54.10
45735;DHT22;31446;49.632;8.328;2023-06-04T15:42:00;25.70;54.90
45735;DHT22;31446;49.632;8.328;2023-06-04T15:57:07;25.30;55.00
45735;DHT22;31446;49.632;8.328;2023-06-04T16:12:13;25.10;54.80
45735;DHT22;31446;49.632;8.328;2023-06-04T16:27:21;25.60;54.60
45735;DHT22;31446;49.632;8.328;2023-06-04T16:42:28;26.90;54.00
45735;DHT22;31446;49.632;8.328;2023-06-04T16:57:35;27.60;53.00
45735;DHT22;31446;49.632;8.328;2023-06-04T17:12:45;28.60;53.10
45735;DHT22;31446;49.632;8.328;2023-06-04T17:27:55;28.90;52.40
45735;DHT22;31446;49.632;8.328;2023-06-04T17:43:02;29.90;52.20
45735;DHT22;31446;49.632;8.328;2023-06-04T17:58:10;29.70;52.40
45735;DHT22;31446;49.632;8.328;2023-06-04T18:13:19;30.00;52.40
45735;DHT22;31446;49.632;8.328;2023-06-04T18:28:26;29.80;53.30
45735;DHT22;31446;49.632;8.328;2023-06-04T18:43:32;29.90;53.40
45735;DHT22;31446;49.632;8.328;2023-06-04T18:58:39;29.00;54.20
45735;DHT22;31446;49.632;8.328;2023-06-04T19:13:47;24.90;58.60
45735;DHT22;31446;49.632;8.328;2023-06-04T19:28:54;22.90;62.60
45735;DHT22;31446;49.632;8.328;2023-06-04T19:44:00;21.70;65.20
45735;DHT22;31446;49.632;8.328;2023-06-04T19:59:17;21.00;67.10
45735;DHT22;31446;49.632;8.328;2023-06-04T20:14:26;20.30;68.40
45735;DHT22;31446;49.632;8.328;2023-06-04T20:29:32;19.70;69.70
45735;DHT22;31446;49.632;8.328;2023-06-04T20:44:39;19.10;70.70
45735;DHT22;31446;49.632;8.328;2023-06-04T20:59:45;18.70;72.10
45735;DHT22;31446;49.632;8.328;2023-06-04T21:14:51;18.50;72.30
45735;DHT22;31446;49.632;8.328;2023-06-04T21:29:58;18.30;72.70
45735;DHT22;31446;49.632;8.328;2023-06-04T21:45:05;17.90;73.20
45735;DHT22;31446;49.632;8.328;2023-06-04T22:00:16;17.60;73.30
45735;DHT22;31446;49.632;8.328;2023-06-04T22:15:22;17.50;72.90
45735;DHT22;31446;49.632;8.328;2023-06-04T22:30:29;17.40;73.50
45735;DHT22;31446;49.632;8.328;2023-06-04T22:45:35;17.20;75.90
45735;DHT22;31446;49.632;8.328;2023-06-04T23:00:43;17.10;74.80
45735;DHT22;31446;49.632;8.328;2023-06-04T23:15:52;16.90;77.00
45735;DHT22;31446;49.632;8.328;2023-06-04T23:31:00;16.70;76.80
45735;DHT22;31446;49.632;8.328;2023-06-04T23:46:06;16.60;75.80
